Pagrindinis puslapis
METAR-TAF:

METAR-TAF

Oro uostai :

Čita, Rusija

platuma: 52-05N, ilguma: 113-29E, Aukštis: 685 m

Dabartinis oras

Ataskaita buvo paskelbta 12 minutes, ne 22:00 UTC
Ramus vėjas
Temperatūra -16°C
Drėgmė 84%
Slėgis 1009 hPa
Matomumas 10 km arba daugiau
Išsisklaidę debesys ne aukštis 4000 ft, Liūtiniai kamuoliniai debesys.

METAR: UIAA 092200Z 00000MPS 9999 SCT040CB M16/M18 Q1009 R29/450145 NOSIG RMK QFE699/0932

Laikas: 07:12 (22:12 UTC)

Prognozė

Ataskaita buvo paskelbta 2 valandos ir 12 minutes, ne 20:00 UTC
Prognozė galioja nuo 09 metu 21 UTC su 10 metu 21 UTC
Vėjas 12 kt iš Vakarų su gūsio iki 23 kt
Matomumas: 3100 m
Su prošvaistėmis ne aukštis 2000 ft, Liūtiniai kamuoliniai debesys.
sniegas, Sniego pustymas pažeme
Laikinai
nuo 09 metu 21 UTC su 10 metu 09 UTC
Matomumas: 1600 m
sniegas

TAF: UIAA 092000Z 0921/1021 27006G12MPS 3100 -SHSN DRSN BKN020CB TEMPO 0921/1009 1600 SHSN

Orai ataskaitas ir orų prognozės (METAR, TAF).

turimą stotys yra geltonos ir raudonos taškus žemėlapyje.

Perkelti pele per norėdami pamatyti stoties vardą.

Tada spustelėkite, norėdami matyti oro stebėjimo ir prognozės.

Norėdami pakeisti žemėlapį: spustelėkite ant žalios mygtukų su juodo kryžiaus žemyn,; žalią mygtuką su brūkšneliu, jei norite nutolinti; arba žalių rodyklių gretimoms žemėlapius.


METAR-TAF: